createdAt,value
2024-03-05T00:00:25.600Z,5.40
2024-03-05T00:02:51.995Z,3.75
2024-03-05T00:07:46.977Z,3.63
2024-03-05T00:10:14.338Z,3.10
2024-03-05T00:12:41.437Z,3.50
2024-03-05T00:15:08.364Z,6.35
2024-03-05T00:17:34.830Z,4.80
2024-03-05T00:20:01.402Z,3.80
2024-03-05T00:22:27.878Z,4.22
2024-03-05T00:24:54.398Z,4.15
2024-03-05T00:27:20.824Z,5.10
2024-03-05T00:29:47.569Z,4.53
2024-03-05T00:32:14.060Z,4.53
2024-03-05T00:34:40.579Z,5.18
2024-03-05T00:37:07.158Z,5.00
2024-03-05T00:39:33.750Z,6.35
2024-03-05T00:42:00.149Z,4.45
2024-03-05T00:44:27.698Z,6.70
2024-03-05T00:46:54.455Z,5.53
2024-03-05T00:49:21.668Z,7.43
2024-03-05T00:51:48.730Z,4.47
2024-03-05T00:54:15.403Z,4.93
2024-03-05T00:56:42.272Z,6.38
2024-03-05T00:59:09.482Z,6.05
2024-03-05T01:01:35.958Z,5.72
2024-03-05T01:04:02.459Z,5.38
2024-03-05T01:06:28.947Z,6.45
2024-03-05T01:08:56.706Z,6.93
2024-03-05T01:11:23.179Z,5.97
2024-03-05T01:13:49.632Z,5.20
2024-03-05T01:16:16.348Z,4.97
2024-03-05T01:18:42.950Z,4.78
2024-03-05T01:21:09.568Z,3.85
2024-03-05T01:23:36.035Z,6.55
2024-03-05T01:28:32.229Z,7.43
2024-03-05T01:30:59.985Z,6.20
2024-03-05T01:33:26.846Z,5.40
2024-03-05T01:35:53.978Z,4.88
2024-03-05T01:38:21.986Z,5.45
2024-03-05T01:40:48.839Z,6.07
2024-03-05T01:43:16.381Z,6.10
2024-03-05T01:45:43.739Z,7.93
2024-03-05T01:48:11.545Z,5.97
2024-03-05T01:50:38.748Z,8.82
2024-03-05T01:53:10.671Z,5.22
2024-03-05T01:55:39.489Z,6.13
2024-03-05T01:58:08.950Z,5.25
2024-03-05T02:00:39.649Z,6.20
2024-03-05T02:03:06.934Z,7.70
2024-03-05T02:05:34.163Z,8.95
2024-03-05T02:08:01.554Z,4.32
2024-03-05T02:10:28.296Z,8.63
2024-03-05T02:12:55.939Z,6.47
2024-03-05T02:15:22.374Z,6.43
2024-03-05T02:20:15.314Z,5.60
2024-03-05T02:22:42.853Z,6.18
2024-03-05T02:25:10.640Z,7.30
2024-03-05T02:27:38.135Z,6.63
2024-03-05T02:30:11.436Z,5.43
2024-03-05T02:32:42.754Z,6.03
2024-03-05T02:35:12.470Z,7.25
2024-03-05T02:37:39.914Z,7.47
2024-03-05T02:40:11.327Z,8.95
2024-03-05T02:42:38.456Z,6.35
2024-03-05T02:45:08.720Z,7.00
2024-03-05T02:47:37.373Z,8.52
2024-03-05T02:50:05.004Z,9.70
2024-03-05T02:52:32.377Z,12.43
2024-03-05T02:54:59.124Z,10.30
2024-03-05T02:57:29.158Z,8.70
2024-03-05T02:59:55.595Z,8.10
2024-03-05T03:04:52.381Z,9.40
2024-03-05T03:07:19.896Z,8.77
2024-03-05T03:09:47.634Z,9.70
2024-03-05T03:12:14.264Z,7.50
2024-03-05T03:14:45.361Z,10.90
2024-03-05T03:17:12.385Z,9.63
2024-03-05T03:19:39.076Z,8.32
2024-03-05T03:22:05.932Z,9.25
2024-03-05T03:24:32.488Z,7.95
2024-03-05T03:29:26.578Z,10.20
2024-03-05T03:31:53.138Z,9.77
2024-03-05T03:34:19.619Z,10.55
2024-03-05T03:39:12.754Z,11.45
2024-03-05T03:41:41.861Z,11.48
2024-03-05T03:44:08.464Z,11.10
2024-03-05T03:46:38.358Z,15.70
2024-03-05T03:49:06.610Z,14.68
2024-03-05T03:51:33.975Z,15.48
2024-03-05T03:54:00.535Z,12.38
2024-03-05T03:56:27.349Z,19.63
2024-03-05T03:58:53.812Z,12.05
2024-03-05T04:01:21.811Z,12.95
2024-03-05T04:03:48.635Z,15.10
2024-03-05T04:06:16.029Z,16.20
2024-03-05T04:08:42.539Z,14.27
2024-03-05T04:13:35.920Z,13.98
2024-03-05T04:16:02.493Z,12.77
2024-03-05T04:18:28.879Z,13.95
2024-03-05T04:20:55.537Z,12.07
2024-03-05T04:23:22.779Z,13.07
2024-03-05T04:25:51.413Z,16.15
2024-03-05T04:28:18.391Z,14.30
2024-03-05T04:30:49.433Z,14.35
2024-03-05T04:33:21.246Z,15.55
2024-03-05T04:35:47.763Z,15.52
2024-03-05T04:40:40.664Z,15.88
2024-03-05T04:43:07.072Z,15.90
2024-03-05T04:45:34.921Z,14.68
2024-03-05T04:48:01.948Z,16.27
2024-03-05T04:50:28.378Z,13.98
2024-03-05T04:55:23.156Z,16.23
2024-03-05T04:57:50.067Z,15.60
2024-03-05T05:00:25.139Z,12.77
2024-03-05T05:02:53.063Z,15.50
2024-03-05T05:05:20.948Z,11.82
2024-03-05T05:07:47.890Z,11.30
2024-03-05T05:10:14.667Z,12.73
2024-03-05T05:12:41.500Z,10.93
2024-03-05T05:15:08.652Z,12.77
2024-03-05T05:17:35.481Z,9.63
2024-03-05T05:20:03.929Z,10.57
2024-03-05T05:22:30.650Z,11.15
2024-03-05T05:24:57.454Z,14.27
2024-03-05T05:27:23.876Z,11.40
2024-03-05T05:32:17.900Z,12.30
2024-03-05T05:34:44.715Z,10.30
2024-03-05T05:37:11.207Z,13.52
2024-03-05T05:39:38.165Z,10.60
2024-03-05T05:42:05.800Z,14.32
2024-03-05T05:44:32.210Z,11.40
2024-03-05T05:49:25.241Z,10.77
2024-03-05T05:51:52.374Z,14.88
2024-03-05T05:54:21.801Z,13.40
2024-03-05T05:56:49.845Z,13.18
2024-03-05T05:59:16.821Z,12.15
2024-03-05T06:01:46.205Z,11.88
2024-03-05T06:04:13.168Z,13.55
2024-03-05T06:06:39.804Z,12.32
2024-03-05T06:09:12.170Z,16.10
2024-03-05T06:14:07.352Z,13.95
2024-03-05T06:16:34.133Z,14.38
2024-03-05T06:19:01.426Z,13.57
2024-03-05T06:21:28.020Z,14.13
2024-03-05T06:23:54.433Z,11.27
2024-03-05T06:28:47.433Z,13.10
2024-03-05T06:31:13.925Z,13.68
2024-03-05T06:33:41.731Z,17.55
2024-03-05T06:36:08.234Z,14.48
2024-03-05T06:38:35.847Z,17.92
2024-03-05T06:41:04.200Z,13.45
2024-03-05T06:43:34.580Z,12.63
2024-03-05T06:46:01.430Z,16.98
2024-03-05T06:48:28.281Z,14.93
2024-03-05T06:50:59.394Z,15.02
2024-03-05T06:53:44.528Z,12.48
2024-03-05T06:56:29.926Z,13.23
2024-03-05T06:58:56.674Z,11.20
2024-03-05T07:01:23.595Z,13.43
2024-03-05T07:03:50.151Z,16.20
2024-03-05T07:06:19.678Z,14.60
2024-03-05T07:09:01.230Z,15.45
2024-03-05T07:11:28.838Z,17.13
2024-03-05T07:13:56.714Z,14.13
2024-03-05T07:16:27.962Z,15.82
2024-03-05T07:18:54.940Z,18.55
2024-03-05T07:21:23.459Z,14.55
2024-03-05T07:23:52.114Z,18.30
2024-03-05T07:26:19.610Z,17.55
2024-03-05T07:28:47.123Z,15.02
2024-03-05T07:31:15.695Z,16.48
2024-03-05T07:33:43.192Z,16.33
2024-03-05T07:36:09.873Z,17.95
2024-03-05T07:38:36.567Z,17.95
2024-03-05T07:41:10.985Z,19.70
2024-03-05T07:43:43.885Z,21.05
2024-03-05T07:46:10.484Z,21.20
2024-03-05T07:48:36.888Z,20.60
2024-03-05T07:51:03.483Z,21.20
2024-03-05T07:53:29.948Z,22.38
2024-03-05T07:55:58.391Z,20.45
2024-03-05T07:58:25.355Z,18.58
2024-03-05T08:00:51.871Z,22.10
2024-03-05T08:03:18.339Z,18.90
2024-03-05T08:05:45.714Z,19.98
2024-03-05T08:08:12.096Z,21.08
2024-03-05T08:10:39.853Z,20.13
2024-03-05T08:13:06.329Z,23.88
2024-03-05T08:15:32.858Z,26.17
2024-03-05T08:17:59.938Z,30.83
2024-03-05T08:20:27.798Z,29.00
2024-03-05T08:22:55.958Z,29.58
2024-03-05T08:25:23.547Z,32.65
2024-03-05T08:27:55.414Z,31.48
2024-03-05T08:30:24.013Z,25.80
2024-03-05T08:32:52.549Z,23.95
2024-03-05T08:35:19.865Z,22.35
2024-03-05T08:37:48.389Z,24.70
2024-03-05T08:40:20.634Z,27.52
2024-03-05T08:45:22.200Z,26.35
2024-03-05T08:47:49.866Z,25.25
2024-03-05T08:50:16.828Z,26.25
2024-03-05T08:52:46.648Z,24.67
2024-03-05T08:55:15.327Z,30.92
2024-03-05T08:57:42.628Z,22.83
2024-03-05T09:00:26.832Z,22.08
2024-03-05T09:03:02.376Z,24.38
2024-03-05T09:05:28.759Z,27.27
2024-03-05T09:07:55.488Z,28.02
2024-03-05T09:10:22.121Z,24.85
2024-03-05T09:12:49.829Z,24.42
2024-03-05T09:15:17.436Z,26.52
2024-03-05T09:17:44.291Z,26.20
2024-03-05T09:20:17.102Z,28.42
2024-03-05T09:22:45.974Z,25.85
2024-03-05T09:25:13.831Z,26.50
2024-03-05T09:27:43.358Z,29.65
2024-03-05T09:30:10.846Z,27.65
2024-03-05T09:32:37.443Z,30.13
2024-03-05T09:35:09.885Z,32.78
2024-03-05T09:37:37.300Z,31.00
2024-03-05T09:40:04.418Z,39.55
2024-03-05T09:42:32.823Z,32.05
2024-03-05T09:45:00.405Z,37.47
2024-03-05T09:47:27.737Z,36.63
2024-03-05T09:49:56.705Z,34.10
2024-03-05T09:52:23.719Z,34.28
2024-03-05T09:54:50.171Z,30.55
2024-03-05T09:57:20.548Z,33.35
2024-03-05T09:59:48.101Z,29.67
2024-03-05T10:02:17.263Z,32.20
2024-03-05T10:04:46.839Z,36.53
2024-03-05T10:07:25.224Z,34.72
2024-03-05T10:10:12.616Z,33.30
2024-03-05T10:12:40.677Z,31.00
2024-03-05T10:15:18.847Z,30.67
2024-03-05T10:20:38.018Z,32.08
2024-03-05T10:23:07.549Z,30.88
2024-03-05T10:25:36.095Z,36.42
2024-03-05T10:28:04.495Z,29.17
2024-03-05T10:30:34.240Z,30.30
2024-03-05T10:33:03.056Z,30.88
2024-03-05T10:35:30.754Z,34.38
2024-03-05T10:38:09.980Z,32.15
2024-03-05T10:40:38.062Z,34.65
2024-03-05T10:43:07.328Z,31.95
2024-03-05T10:45:42.362Z,31.90
2024-03-05T10:48:11.572Z,29.77
2024-03-05T10:50:41.613Z,30.58
2024-03-05T10:53:09.665Z,32.40
2024-03-05T10:55:37.898Z,37.90
2024-03-05T10:58:15.137Z,34.85
2024-03-05T11:00:45.115Z,30.98
2024-03-05T11:03:13.443Z,33.03
2024-03-05T11:05:49.711Z,31.92
2024-03-05T11:08:22.059Z,37.95
2024-03-05T11:10:52.959Z,36.80
2024-03-05T11:13:20.739Z,34.25
2024-03-05T11:15:50.433Z,34.08
2024-03-05T11:18:34.314Z,30.95
2024-03-05T11:21:14.545Z,32.63
2024-03-05T11:23:55.635Z,31.85
2024-03-05T11:26:24.253Z,31.45
2024-03-05T11:28:56.400Z,31.60
2024-03-05T11:31:29.087Z,31.60
2024-03-05T11:34:12.353Z,30.98
2024-03-05T11:36:39.135Z,31.98
2024-03-05T11:39:05.633Z,31.85
2024-03-05T11:41:34.435Z,32.00
2024-03-05T11:44:03.920Z,30.17
2024-03-05T11:46:48.440Z,31.55
2024-03-05T11:51:44.267Z,32.40
2024-03-05T11:54:12.788Z,30.35
2024-03-05T11:56:45.685Z,35.17
2024-03-05T11:59:13.443Z,31.92
2024-03-05T12:01:42.469Z,35.55
2024-03-05T12:04:10.963Z,35.38
2024-03-05T12:06:44.463Z,33.47
2024-03-05T12:09:22.150Z,34.13
2024-03-05T12:12:06.943Z,33.30
2024-03-05T12:14:35.458Z,29.38
2024-03-05T12:17:05.171Z,31.10
2024-03-05T12:19:32.607Z,28.73
2024-03-05T12:22:00.651Z,30.40
2024-03-05T12:24:31.289Z,29.92
2024-03-05T12:26:58.922Z,29.80
2024-03-05T12:29:30.233Z,30.63
2024-03-05T12:31:58.246Z,30.02
2024-03-05T12:34:26.822Z,31.00
2024-03-05T12:36:53.394Z,33.25
2024-03-05T12:39:19.929Z,34.20
2024-03-05T12:42:01.722Z,32.92
2024-03-05T12:44:29.568Z,30.17
2024-03-05T12:47:14.672Z,35.83
2024-03-05T12:49:47.139Z,30.48
2024-03-05T12:52:21.262Z,30.27
2024-03-05T12:54:58.114Z,24.90
2024-03-05T12:57:29.540Z,26.60
2024-03-05T12:59:59.350Z,26.83
2024-03-05T13:02:26.158Z,25.08
2024-03-05T13:04:54.646Z,28.38
2024-03-05T13:07:22.655Z,25.58
2024-03-05T13:09:52.082Z,29.67
2024-03-05T13:12:19.887Z,25.80
2024-03-05T13:14:46.310Z,30.40
2024-03-05T13:17:12.756Z,29.08
2024-03-05T13:19:39.339Z,27.75
2024-03-05T13:22:05.821Z,28.83
2024-03-05T13:24:32.423Z,26.55
2024-03-05T13:27:00.768Z,24.15
2024-03-05T13:29:27.489Z,26.00
2024-03-05T13:31:55.233Z,34.03
2024-03-05T13:34:23.678Z,26.08
2024-03-05T13:36:50.477Z,30.98
2024-03-05T13:39:22.979Z,29.40
2024-03-05T13:41:50.109Z,25.98
2024-03-05T13:44:16.545Z,28.98
2024-03-05T13:46:43.013Z,28.90
2024-03-05T13:49:12.365Z,27.63
2024-03-05T13:51:39.098Z,28.33
2024-03-05T13:54:07.413Z,28.52
2024-03-05T13:56:36.218Z,28.88
2024-03-05T13:59:07.829Z,25.15
2024-03-05T14:01:34.498Z,24.13
2024-03-05T14:04:01.017Z,23.38
2024-03-05T14:06:28.626Z,24.67
2024-03-05T14:08:57.497Z,24.90
2024-03-05T14:11:24.054Z,25.80
2024-03-05T14:13:50.589Z,25.85
2024-03-05T14:16:19.013Z,23.00
2024-03-05T14:18:45.837Z,23.58
2024-03-05T14:21:12.456Z,22.98
2024-03-05T14:23:40.448Z,25.58
2024-03-05T14:26:07.773Z,24.05
2024-03-05T14:28:34.601Z,20.77
2024-03-05T14:31:01.859Z,24.50
2024-03-05T14:33:28.230Z,23.83
2024-03-05T14:35:54.644Z,23.73
2024-03-05T14:38:22.100Z,25.77
2024-03-05T14:40:51.035Z,24.67
2024-03-05T14:43:17.797Z,21.60
2024-03-05T14:45:44.263Z,28.00
2024-03-05T14:48:10.735Z,25.80
2024-03-05T14:50:37.313Z,21.42
2024-03-05T14:53:04.016Z,24.00
2024-03-05T14:55:31.213Z,24.05
2024-03-05T14:57:57.734Z,25.02
2024-03-05T15:00:24.556Z,27.35
2024-03-05T15:02:52.218Z,26.63
2024-03-05T15:05:20.235Z,25.15
2024-03-05T15:07:47.349Z,26.17
2024-03-05T15:10:17.048Z,24.17
2024-03-05T15:12:47.260Z,23.48
2024-03-05T15:15:14.635Z,25.10
2024-03-05T15:17:41.746Z,27.17
2024-03-05T15:20:17.254Z,24.17
2024-03-05T15:22:51.412Z,23.08
2024-03-05T15:25:23.916Z,24.33
2024-03-05T15:30:20.548Z,26.92
2024-03-05T15:32:48.756Z,24.95
2024-03-05T15:35:16.721Z,28.05
2024-03-05T15:37:46.224Z,24.73
2024-03-05T15:40:17.435Z,27.08
2024-03-05T15:42:47.362Z,24.70
2024-03-05T15:45:14.655Z,25.10
2024-03-05T15:47:42.864Z,26.83
2024-03-05T15:50:16.861Z,27.52
2024-03-05T15:52:54.525Z,24.67
2024-03-05T15:55:25.892Z,21.10
2024-03-05T15:58:02.739Z,27.95
2024-03-05T16:00:37.280Z,25.27
2024-03-05T16:03:07.979Z,24.63
2024-03-05T16:05:47.354Z,28.13
2024-03-05T16:08:24.989Z,23.73
2024-03-05T16:10:52.872Z,23.50
2024-03-05T16:13:19.623Z,24.35
2024-03-05T16:15:47.380Z,25.10
2024-03-05T16:18:14.619Z,24.40
2024-03-05T16:20:41.337Z,23.50
2024-03-05T16:23:08.830Z,25.27
2024-03-05T16:25:40.299Z,24.25
2024-03-05T16:28:09.182Z,24.92
2024-03-05T16:30:35.951Z,27.02
2024-03-05T16:33:02.423Z,26.30
2024-03-05T16:35:33.685Z,24.20
2024-03-05T16:38:01.253Z,25.15
2024-03-05T16:40:27.836Z,23.52
2024-03-05T16:42:55.912Z,23.67
2024-03-05T16:45:28.557Z,23.55
2024-03-05T16:47:59.382Z,24.00
2024-03-05T16:50:28.146Z,23.23
2024-03-05T16:53:02.001Z,24.15
2024-03-05T16:55:28.849Z,23.55
2024-03-05T16:58:00.634Z,23.60
2024-03-05T17:00:32.020Z,25.25
2024-03-05T17:03:08.689Z,24.77
2024-03-05T17:05:38.122Z,20.65
2024-03-05T17:08:14.987Z,24.67
2024-03-05T17:10:48.401Z,22.15
2024-03-05T17:13:26.320Z,23.73
2024-03-05T17:16:05.278Z,19.88
2024-03-05T17:18:33.235Z,23.13
2024-03-05T17:20:59.871Z,23.25
2024-03-05T17:23:27.974Z,23.88
2024-03-05T17:25:56.804Z,21.92
2024-03-05T17:28:26.576Z,23.35
2024-03-05T17:30:53.166Z,23.90
2024-03-05T17:33:19.636Z,25.15
2024-03-05T17:35:46.398Z,22.58
2024-03-05T17:38:14.464Z,24.58
2024-03-05T17:40:41.705Z,21.65
2024-03-05T17:43:08.362Z,26.80
2024-03-05T17:45:34.926Z,23.88
2024-03-05T17:48:06.761Z,24.65
2024-03-05T17:50:34.139Z,26.38
2024-03-05T17:53:00.581Z,27.80
2024-03-05T17:55:27.070Z,23.90
2024-03-05T17:57:53.612Z,26.10
2024-03-05T18:00:23.452Z,24.20
2024-03-05T18:02:51.762Z,25.55
2024-03-05T18:05:19.737Z,25.60
2024-03-05T18:07:46.954Z,20.98
2024-03-05T18:10:13.876Z,23.27
2024-03-05T18:12:40.924Z,24.77
2024-03-05T18:15:08.641Z,22.30
2024-03-05T18:17:42.088Z,24.15
2024-03-05T18:20:10.061Z,21.35
2024-03-05T18:22:37.038Z,22.73
2024-03-05T18:25:15.448Z,27.45
2024-03-05T18:27:42.829Z,24.05
2024-03-05T18:30:10.965Z,27.02
2024-03-05T18:32:39.212Z,27.40
2024-03-05T18:35:09.867Z,29.20
2024-03-05T18:37:38.531Z,30.13
2024-03-05T18:40:07.995Z,26.20
2024-03-05T18:42:34.500Z,25.08
2024-03-05T18:45:04.615Z,24.73
2024-03-05T18:47:31.080Z,20.13
2024-03-05T18:49:57.708Z,21.58
2024-03-05T18:52:24.174Z,23.73
2024-03-05T18:54:50.880Z,23.30
2024-03-05T18:57:17.464Z,20.45
2024-03-05T18:59:45.041Z,22.02
2024-03-05T19:02:11.568Z,22.40
2024-03-05T19:04:38.112Z,23.75
2024-03-05T19:07:05.001Z,27.27
2024-03-05T19:09:31.656Z,26.27
2024-03-05T19:11:58.304Z,23.02
2024-03-05T19:14:24.766Z,21.77
2024-03-05T19:16:51.258Z,23.77
2024-03-05T19:19:17.726Z,22.52
2024-03-05T19:21:44.913Z,21.85
2024-03-05T19:24:11.300Z,26.00
2024-03-05T19:26:38.435Z,21.63
2024-03-05T19:29:06.489Z,23.25
2024-03-05T19:31:33.199Z,23.67
2024-03-05T19:33:59.672Z,24.65
2024-03-05T19:36:26.347Z,21.30
2024-03-05T19:38:55.603Z,21.40
2024-03-05T19:41:22.676Z,24.35
2024-03-05T19:43:49.324Z,23.00
2024-03-05T19:46:15.931Z,22.88
2024-03-05T19:48:44.040Z,21.67
2024-03-05T19:51:13.932Z,21.02
2024-03-05T19:53:40.352Z,20.70
2024-03-05T19:56:07.207Z,22.67
2024-03-05T19:58:34.146Z,23.15
2024-03-05T20:01:01.761Z,25.67
2024-03-05T20:03:29.074Z,24.83
2024-03-05T20:05:55.681Z,21.92
2024-03-05T20:08:22.173Z,20.00
2024-03-05T20:10:48.847Z,22.83
2024-03-05T20:13:15.321Z,19.67
2024-03-05T20:15:41.832Z,18.85
2024-03-05T20:18:09.441Z,14.52
2024-03-05T20:20:37.469Z,15.75
2024-03-05T20:23:04.255Z,18.02
2024-03-05T20:25:30.831Z,15.27
2024-03-05T20:27:57.422Z,15.45
2024-03-05T20:30:24.215Z,16.02
2024-03-05T20:32:51.706Z,16.23
2024-03-05T20:35:20.031Z,15.57
2024-03-05T20:37:48.792Z,16.88
2024-03-05T20:40:15.954Z,19.88
2024-03-05T20:42:43.902Z,16.42
2024-03-05T20:45:12.574Z,19.23
2024-03-05T20:47:39.846Z,16.92
2024-03-05T20:50:08.975Z,14.77
2024-03-05T20:52:36.399Z,11.85
2024-03-05T20:55:05.042Z,21.25
2024-03-05T20:57:35.108Z,16.98
2024-03-05T21:00:07.408Z,15.80
2024-03-05T21:02:37.820Z,14.77
2024-03-05T21:05:08.933Z,19.45
2024-03-05T21:07:37.069Z,16.80
2024-03-05T21:10:08.340Z,17.52
2024-03-05T21:12:38.362Z,14.80
2024-03-05T21:15:09.502Z,15.57
2024-03-05T21:17:39.822Z,14.60
2024-03-05T21:20:11.422Z,16.50
2024-03-05T21:22:38.856Z,18.05
2024-03-05T21:25:08.882Z,21.25
2024-03-05T21:27:36.321Z,21.10
2024-03-05T21:30:06.980Z,21.35
2024-03-05T21:32:34.429Z,22.25
2024-03-05T21:35:07.844Z,23.65
2024-03-05T21:37:39.158Z,19.15
2024-03-05T21:40:07.256Z,20.67
2024-03-05T21:42:34.415Z,18.48
2024-03-05T21:45:01.594Z,18.52
2024-03-05T21:47:28.264Z,16.42
2024-03-05T21:49:54.777Z,18.75
2024-03-05T21:52:21.260Z,17.90
2024-03-05T21:54:47.668Z,20.00
2024-03-05T21:57:14.170Z,19.60
2024-03-05T21:59:40.588Z,19.15
2024-03-05T22:02:07.800Z,20.00
2024-03-05T22:04:34.612Z,19.63
2024-03-05T22:07:01.196Z,21.05
2024-03-05T22:09:27.649Z,20.27
2024-03-05T22:11:54.119Z,20.48
2024-03-05T22:14:20.750Z,21.38
2024-03-05T22:16:47.490Z,22.23
2024-03-05T22:19:14.247Z,21.25
2024-03-05T22:21:40.811Z,23.08
2024-03-05T22:24:07.967Z,20.75
2024-03-05T22:26:35.220Z,23.95
2024-03-05T22:29:02.069Z,21.30
2024-03-05T22:31:28.892Z,20.95
2024-03-05T22:33:55.752Z,22.27
2024-03-05T22:36:22.311Z,21.70
2024-03-05T22:38:49.644Z,19.23
2024-03-05T22:41:17.673Z,21.27
2024-03-05T22:43:44.705Z,19.40
2024-03-05T22:46:11.413Z,19.63
2024-03-05T22:48:37.950Z,18.85
2024-03-05T22:51:08.064Z,21.70
2024-03-05T22:53:35.527Z,20.67
2024-03-05T22:56:02.065Z,23.98
2024-03-05T22:58:28.668Z,24.15
2024-03-05T23:00:59.447Z,22.52
2024-03-05T23:03:28.886Z,23.25
2024-03-05T23:05:55.893Z,24.90
2024-03-05T23:08:22.516Z,25.95
2024-03-05T23:10:49.282Z,24.30
2024-03-05T23:13:16.169Z,25.92
2024-03-05T23:15:43.314Z,29.50
2024-03-05T23:18:10.113Z,29.48
2024-03-05T23:20:36.647Z,27.95
2024-03-05T23:23:03.165Z,24.83
2024-03-05T23:25:29.648Z,26.40
2024-03-05T23:27:58.534Z,25.13
2024-03-05T23:30:26.736Z,25.95
2024-03-05T23:32:53.941Z,23.27
2024-03-05T23:35:20.793Z,26.83
2024-03-05T23:37:47.459Z,28.13
2024-03-05T23:40:14.873Z,26.48
2024-03-05T23:42:41.586Z,25.60
2024-03-05T23:45:08.493Z,26.77
2024-03-05T23:47:35.252Z,23.77
2024-03-05T23:50:02.853Z,23.15
2024-03-05T23:52:29.536Z,25.02
2024-03-05T23:54:59.083Z,23.60
2024-03-05T23:57:28.637Z,22.75
2024-03-05T23:59:55.412Z,22.70
